sensor_id;sensor_type;location;lat;lon;timestamp;pressure;altitude;pressure_sealevel;temperature;humidity
11952;BME280;6036;41.840;23.486;2022-09-28T00:01:08;89660.75;;;16.23;67.98
11952;BME280;6036;41.840;23.486;2022-09-28T00:03:34;89651.88;;;16.61;66.29
11952;BME280;6036;41.840;23.486;2022-09-28T00:06:02;89658.06;;;16.30;67.12
11952;BME280;6036;41.840;23.486;2022-09-28T00:08:28;89654.19;;;15.80;68.70
11952;BME280;6036;41.840;23.486;2022-09-28T00:10:54;89659.66;;;16.17;67.75
11952;BME280;6036;41.840;23.486;2022-09-28T00:13:20;89655.66;;;16.60;66.19
11952;BME280;6036;41.840;23.486;2022-09-28T00:15:45;89647.25;;;16.72;65.51
11952;BME280;6036;41.840;23.486;2022-09-28T00:18:11;89652.06;;;16.88;64.93
11952;BME280;6036;41.840;23.486;2022-09-28T00:20:36;89653.53;;;16.92;64.56
11952;BME280;6036;41.840;23.486;2022-09-28T00:23:02;89640.53;;;15.99;68.29
11952;BME280;6036;41.840;23.486;2022-09-28T00:25:27;89649.22;;;15.89;69.12
11952;BME280;6036;41.840;23.486;2022-09-28T00:27:54;89658.56;;;16.07;69.23
11952;BME280;6036;41.840;23.486;2022-09-28T00:30:21;89644.41;;;16.46;68.37
11952;BME280;6036;41.840;23.486;2022-09-28T00:32:47;89653.66;;;16.78;66.48
11952;BME280;6036;41.840;23.486;2022-09-28T00:35:12;89641.50;;;16.26;67.57
11952;BME280;6036;41.840;23.486;2022-09-28T00:37:37;89646.34;;;16.35;67.13
11952;BME280;6036;41.840;23.486;2022-09-28T00:40:03;89648.56;;;16.43;66.92
11952;BME280;6036;41.840;23.486;2022-09-28T00:42:29;89653.84;;;16.43;66.88
11952;BME280;6036;41.840;23.486;2022-09-28T00:44:56;89653.84;;;16.43;66.90
11952;BME280;6036;41.840;23.486;2022-09-28T00:47:53;89651.13;;;16.61;66.38
11952;BME280;6036;41.840;23.486;2022-09-28T00:50:30;89646.22;;;16.59;66.47
11952;BME280;6036;41.840;23.486;2022-09-28T00:53:03;89653.44;;;16.52;66.37
11952;BME280;6036;41.840;23.486;2022-09-28T00:55:33;89644.09;;;16.29;67.30
11952;BME280;6036;41.840;23.486;2022-09-28T00:58:03;89645.66;;;16.23;68.07
11952;BME280;6036;41.840;23.486;2022-09-28T01:00:29;89631.16;;;16.49;67.50
11952;BME280;6036;41.840;23.486;2022-09-28T01:02:56;89639.56;;;16.34;67.48
11952;BME280;6036;41.840;23.486;2022-09-28T01:05:23;89637.66;;;16.38;66.64
11952;BME280;6036;41.840;23.486;2022-09-28T01:07:49;89635.69;;;16.52;65.48
11952;BME280;6036;41.840;23.486;2022-09-28T01:10:15;89637.22;;;16.53;65.52
11952;BME280;6036;41.840;23.486;2022-09-28T01:12:40;89646.34;;;16.35;66.48
11952;BME280;6036;41.840;23.486;2022-09-28T01:15:06;89638.06;;;16.36;66.29
11952;BME280;6036;41.840;23.486;2022-09-28T01:28:22;89631.16;;;15.84;68.85
11952;BME280;6036;41.840;23.486;2022-09-28T01:30:51;89628.22;;;16.40;66.96
11952;BME280;6036;41.840;23.486;2022-09-28T01:33:26;89632.38;;;16.41;67.48
11952;BME280;6036;41.840;23.486;2022-09-28T01:35:58;89627.50;;;16.36;67.27
11952;BME280;6036;41.840;23.486;2022-09-28T01:39:19;89628.91;;;16.51;66.50
11952;BME280;6036;41.840;23.486;2022-09-28T01:41:18;89635.66;;;16.59;66.06
11952;BME280;6036;41.840;23.486;2022-09-28T01:43:50;89639.44;;;16.58;66.52
11952;BME280;6036;41.840;23.486;2022-09-28T01:46:25;89642.09;;;16.51;65.83
11952;BME280;6036;41.840;23.486;2022-09-28T01:49:01;89653.34;;;15.97;68.24
11952;BME280;6036;41.840;23.486;2022-09-28T01:51:40;89653.31;;;16.04;68.06
11952;BME280;6036;41.840;23.486;2022-09-28T01:54:36;89649.91;;;16.00;68.40
11952;BME280;6036;41.840;23.486;2022-09-28T01:59:37;89661.69;;;15.81;69.74
11952;BME280;6036;41.840;23.486;2022-09-28T02:02:12;89666.97;;;15.78;70.26
11952;BME280;6036;41.840;23.486;2022-09-28T02:05:24;89665.53;;;15.70;70.67
11952;BME280;6036;41.840;23.486;2022-09-28T02:10:16;89675.34;;;15.44;71.59
11952;BME280;6036;41.840;23.486;2022-09-28T02:13:01;89669.34;;;15.40;71.96
11952;BME280;6036;41.840;23.486;2022-09-28T02:15:50;89664.06;;;15.54;71.14
11952;BME280;6036;41.840;23.486;2022-09-28T02:18:18;89658.72;;;15.69;70.06
11952;BME280;6036;41.840;23.486;2022-09-28T02:20:51;89660.25;;;15.55;70.47
11952;BME280;6036;41.840;23.486;2022-09-28T02:23:18;89665.94;;;15.50;70.73
11952;BME280;6036;41.840;23.486;2022-09-28T02:26:00;89662.91;;;15.41;70.78
11952;BME280;6036;41.840;23.486;2022-09-28T02:28:25;89657.25;;;15.60;70.04
11952;BME280;6036;41.840;23.486;2022-09-28T02:30:51;89665.53;;;15.70;69.50
11952;BME280;6036;41.840;23.486;2022-09-28T02:33:36;89661.78;;;15.42;70.93
11952;BME280;6036;41.840;23.486;2022-09-28T02:36:02;89671.97;;;15.54;70.12
11952;BME280;6036;41.840;23.486;2022-09-28T02:38:30;89672.34;;;15.42;71.37
11952;BME280;6036;41.840;23.486;2022-09-28T02:44:15;89657.28;;;15.43;71.09
11952;BME280;6036;41.840;23.486;2022-09-28T02:57:30;89663.00;;;14.95;73.85
11952;BME280;6036;41.840;23.486;2022-09-28T03:00:05;89667.88;;;15.18;73.04
11952;BME280;6036;41.840;23.486;2022-09-28T03:07:53;89661.84;;;15.14;72.76
11952;BME280;6036;41.840;23.486;2022-09-28T03:10:24;89667.53;;;14.63;74.40
11952;BME280;6036;41.840;23.486;2022-09-28T03:12:53;89681.06;;;14.83;74.48
11952;BME280;6036;41.840;23.486;2022-09-28T03:15:24;89683.69;;;15.04;73.51
11952;BME280;6036;41.840;23.486;2022-09-28T03:17:49;89665.97;;;15.12;72.69
11952;BME280;6036;41.840;23.486;2022-09-28T03:20:15;89678.41;;;14.72;74.69
11952;BME280;6036;41.840;23.486;2022-09-28T03:22:41;89686.72;;;14.85;74.81
11952;BME280;6036;41.840;23.486;2022-09-28T03:25:07;89689.72;;;14.94;74.38
11952;BME280;6036;41.840;23.486;2022-09-28T03:27:33;89685.22;;;14.98;74.19
11952;BME280;6036;41.840;23.486;2022-09-28T03:29:58;89686.34;;;15.01;73.87
11952;BME280;6036;41.840;23.486;2022-09-28T03:32:24;89676.16;;;15.03;72.87
11952;BME280;6036;41.840;23.486;2022-09-28T03:34:49;89680.69;;;14.81;72.97
11952;BME280;6036;41.840;23.486;2022-09-28T03:37:15;89687.84;;;14.73;73.03
11952;BME280;6036;41.840;23.486;2022-09-28T03:39:40;89694.22;;;14.97;71.93
11952;BME280;6036;41.840;23.486;2022-09-28T03:42:06;89690.06;;;15.24;71.11
11952;BME280;6036;41.840;23.486;2022-09-28T03:44:31;89696.50;;;15.06;71.31
11952;BME280;6036;41.840;23.486;2022-09-28T03:46:56;89702.88;;;15.12;70.91
11952;BME280;6036;41.840;23.486;2022-09-28T03:49:22;89690.09;;;14.89;72.21
11952;BME280;6036;41.840;23.486;2022-09-28T03:51:47;89689.34;;;14.78;73.09
11952;BME280;6036;41.840;23.486;2022-09-28T03:54:13;89697.19;;;14.43;74.48
11952;BME280;6036;41.840;23.486;2022-09-28T03:56:39;89698.72;;;14.79;73.17
11952;BME280;6036;41.840;23.486;2022-09-28T03:59:05;89704.00;;;14.89;72.06
11952;BME280;6036;41.840;23.486;2022-09-28T04:01:30;89701.00;;;14.63;73.19
11952;BME280;6036;41.840;23.486;2022-09-28T04:03:56;89696.69;;;14.05;76.12
11952;BME280;6036;41.840;23.486;2022-09-28T04:06:24;89686.69;;;14.53;74.50
11952;BME280;6036;41.840;23.486;2022-09-28T04:08:50;89686.88;;;13.88;76.67
11952;BME280;6036;41.840;23.486;2022-09-28T04:11:16;89674.53;;;14.06;76.35
11952;BME280;6036;41.840;23.486;2022-09-28T04:13:41;89671.56;;;14.18;75.97
11952;BME280;6036;41.840;23.486;2022-09-28T04:16:08;89670.09;;;14.24;76.33
11952;BME280;6036;41.840;23.486;2022-09-28T04:18:34;89675.34;;;14.28;75.92
11952;BME280;6036;41.840;23.486;2022-09-28T04:21:06;89674.22;;;14.29;75.80
11952;BME280;6036;41.840;23.486;2022-09-28T04:23:34;89677.59;;;14.29;74.94
11952;BME280;6036;41.840;23.486;2022-09-28T04:26:00;89695.34;;;14.47;73.68
11952;BME280;6036;41.840;23.486;2022-09-28T04:28:25;89705.41;;;14.27;73.19
11952;BME280;6036;41.840;23.486;2022-09-28T04:31:11;89692.69;;;14.43;72.13
11952;BME280;6036;41.840;23.486;2022-09-28T04:33:37;89705.72;;;14.04;73.74
11952;BME280;6036;41.840;23.486;2022-09-28T04:36:03;89700.19;;;14.38;73.04
11952;BME280;6036;41.840;23.486;2022-09-28T04:38:29;89715.31;;;14.76;71.28
11952;BME280;6036;41.840;23.486;2022-09-28T04:40:54;89713.41;;;14.87;70.88
11952;BME280;6036;41.840;23.486;2022-09-28T04:43:19;89705.53;;;14.97;70.68
11952;BME280;6036;41.840;23.486;2022-09-28T04:45:45;89708.53;;;15.17;70.34
11952;BME280;6036;41.840;23.486;2022-09-28T04:48:10;89721.72;;;15.21;71.26
11952;BME280;6036;41.840;23.486;2022-09-28T04:50:36;89719.06;;;15.07;72.45
11952;BME280;6036;41.840;23.486;2022-09-28T04:53:02;89707.41;;;15.08;72.36
11952;BME280;6036;41.840;23.486;2022-09-28T04:55:27;89714.91;;;15.34;71.58
11952;BME280;6036;41.840;23.486;2022-09-28T04:57:57;89725.06;;;15.39;71.51
11952;BME280;6036;41.840;23.486;2022-09-28T05:00:28;89719.03;;;15.42;71.58
11952;BME280;6036;41.840;23.486;2022-09-28T05:02:54;89723.56;;;15.24;72.31
11952;BME280;6036;41.840;23.486;2022-09-28T05:05:19;89720.56;;;15.39;71.47
11952;BME280;6036;41.840;23.486;2022-09-28T05:07:45;89723.56;;;15.41;71.48
11952;BME280;6036;41.840;23.486;2022-09-28T05:10:11;89734.88;;;15.31;71.98
11952;BME280;6036;41.840;23.486;2022-09-28T05:12:36;89734.13;;;15.45;70.87
11952;BME280;6036;41.840;23.486;2022-09-28T05:15:02;89735.63;;;15.49;69.94
11952;BME280;6036;41.840;23.486;2022-09-28T05:17:27;89742.78;;;15.24;70.80
11952;BME280;6036;41.840;23.486;2022-09-28T05:19:53;89746.91;;;15.39;70.68
11952;BME280;6036;41.840;23.486;2022-09-28T05:22:18;89738.59;;;15.80;69.35
11952;BME280;6036;41.840;23.486;2022-09-28T05:24:44;89735.63;;;15.56;70.08
11952;BME280;6036;41.840;23.486;2022-09-28T05:27:10;89746.16;;;14.96;72.58
11952;BME280;6036;41.840;23.486;2022-09-28T05:29:36;89735.63;;;15.14;72.64
11952;BME280;6036;41.840;23.486;2022-09-28T05:32:01;89735.97;;;14.70;74.50
11952;BME280;6036;41.840;23.486;2022-09-28T05:34:26;89733.44;;;13.84;78.52
11952;BME280;6036;41.840;23.486;2022-09-28T05:36:52;89731.47;;;14.71;76.07
11952;BME280;6036;41.840;23.486;2022-09-28T05:39:17;89734.13;;;15.34;72.61
11952;BME280;6036;41.840;23.486;2022-09-28T05:41:43;89743.53;;;15.04;74.13
11952;BME280;6036;41.840;23.486;2022-09-28T05:44:08;89745.78;;;14.84;74.54
11952;BME280;6036;41.840;23.486;2022-09-28T05:46:34;89737.13;;;15.26;73.44
11952;BME280;6036;41.840;23.486;2022-09-28T05:48:59;89746.16;;;15.67;71.92
11952;BME280;6036;41.840;23.486;2022-09-28T05:51:25;89743.47;;;15.78;71.40
11952;BME280;6036;41.840;23.486;2022-09-28T05:53:53;89746.88;;;15.82;70.65
11952;BME280;6036;41.840;23.486;2022-09-28T05:56:19;89748.44;;;15.65;71.33
11952;BME280;6036;41.840;23.486;2022-09-28T05:58:45;89757.47;;;15.68;71.75
11952;BME280;6036;41.840;23.486;2022-09-28T06:01:10;89759.63;;;16.01;70.82
11952;BME280;6036;41.840;23.486;2022-09-28T06:03:36;89763.34;;;16.21;70.00
11952;BME280;6036;41.840;23.486;2022-09-28T06:06:01;89771.50;;;16.58;68.80
11952;BME280;6036;41.840;23.486;2022-09-28T06:08:27;89776.63;;;16.86;67.30
11952;BME280;6036;41.840;23.486;2022-09-28T06:10:52;89773.78;;;16.49;68.28
11952;BME280;6036;41.840;23.486;2022-09-28T06:13:17;89772.44;;;16.06;70.30
11952;BME280;6036;41.840;23.486;2022-09-28T06:15:43;89769.09;;;15.95;70.19
11952;BME280;6036;41.840;23.486;2022-09-28T06:18:12;89775.16;;;15.14;73.75
11952;BME280;6036;41.840;23.486;2022-09-28T06:20:41;89764.59;;;15.71;73.01
11952;BME280;6036;41.840;23.486;2022-09-28T06:23:11;89770.44;;;16.35;70.00
11952;BME280;6036;41.840;23.486;2022-09-28T06:25:37;89762.00;;;16.71;68.50
11952;BME280;6036;41.840;23.486;2022-09-28T06:28:13;89770.31;;;15.48;72.70
11952;BME280;6036;41.840;23.486;2022-09-28T06:30:40;89764.97;;;15.73;72.22
11952;BME280;6036;41.840;23.486;2022-09-28T06:33:10;89755.91;;;15.81;72.17
11952;BME280;6036;41.840;23.486;2022-09-28T06:35:35;89757.72;;;16.05;71.05
11952;BME280;6036;41.840;23.486;2022-09-28T06:38:01;89767.25;;;15.67;73.01
11952;BME280;6036;41.840;23.486;2022-09-28T06:40:27;89765.00;;;15.44;74.45
11952;BME280;6036;41.840;23.486;2022-09-28T06:43:03;89770.19;;;16.01;72.50
11952;BME280;6036;41.840;23.486;2022-09-28T06:45:34;89780.56;;;16.57;70.85
11952;BME280;6036;41.840;23.486;2022-09-28T06:48:01;89781.91;;;16.94;68.96
11952;BME280;6036;41.840;23.486;2022-09-28T06:50:30;89781.00;;;16.35;70.46
11952;BME280;6036;41.840;23.486;2022-09-28T06:52:56;89778.75;;;16.33;70.65
11952;BME280;6036;41.840;23.486;2022-09-28T06:55:22;89785.31;;;15.90;72.37
11952;BME280;6036;41.840;23.486;2022-09-28T06:57:56;89779.31;;;15.68;73.70
11952;BME280;6036;41.840;23.486;2022-09-28T07:00:23;89778.56;;;15.60;73.32
11952;BME280;6036;41.840;23.486;2022-09-28T07:02:48;89768.28;;;16.05;72.29
11952;BME280;6036;41.840;23.486;2022-09-28T07:05:14;89765.34;;;16.82;69.45
11952;BME280;6036;41.840;23.486;2022-09-28T07:07:39;89760.25;;;17.61;67.04
11952;BME280;6036;41.840;23.486;2022-09-28T07:10:10;89757.75;;;19.15;62.32
11952;BME280;6036;41.840;23.486;2022-09-28T07:12:36;89750.78;;;20.18;58.21
11952;BME280;6036;41.840;23.486;2022-09-28T07:15:03;89760.84;;;21.24;54.87
11952;BME280;6036;41.840;23.486;2022-09-28T07:17:29;89767.94;;;21.79;52.96
11952;BME280;6036;41.840;23.486;2022-09-28T07:19:55;89776.75;;;21.76;52.36
11952;BME280;6036;41.840;23.486;2022-09-28T07:22:22;89764.94;;;21.45;53.47
11952;BME280;6036;41.840;23.486;2022-09-28T07:24:48;89775.69;;;20.86;55.71
11952;BME280;6036;41.840;23.486;2022-09-28T07:27:14;89777.56;;;21.25;55.18
11952;BME280;6036;41.840;23.486;2022-09-28T07:29:39;89783.06;;;20.79;55.20
11952;BME280;6036;41.840;23.486;2022-09-28T07:32:05;89781.34;;;20.29;56.31
11952;BME280;6036;41.840;23.486;2022-09-28T07:34:30;89783.53;;;19.88;56.96
11952;BME280;6036;41.840;23.486;2022-09-28T07:36:55;89781.47;;;19.99;57.63
11952;BME280;6036;41.840;23.486;2022-09-28T07:39:23;89778.13;;;20.97;53.84
11952;BME280;6036;41.840;23.486;2022-09-28T07:41:49;89786.56;;;21.47;53.25
11952;BME280;6036;41.840;23.486;2022-09-28T07:44:14;89793.22;;;21.39;53.53
11952;BME280;6036;41.840;23.486;2022-09-28T07:46:41;89802.25;;;22.10;53.53
11952;BME280;6036;41.840;23.486;2022-09-28T07:49:07;89789.41;;;24.89;45.56
11952;BME280;6036;41.840;23.486;2022-09-28T07:51:33;89791.63;;;27.17;39.60
11952;BME280;6036;41.840;23.486;2022-09-28T07:53:58;89788.25;;;29.42;35.63
11952;BME280;6036;41.840;23.486;2022-09-28T07:56:24;89798.00;;;28.63;35.75
11952;BME280;6036;41.840;23.486;2022-09-28T07:58:50;89797.34;;;27.79;38.12
11952;BME280;6036;41.840;23.486;2022-09-28T08:01:15;89787.63;;;26.00;40.57
11952;BME280;6036;41.840;23.486;2022-09-28T08:03:44;89791.97;;;26.06;42.01
11952;BME280;6036;41.840;23.486;2022-09-28T08:06:11;89800.25;;;27.57;38.71
11952;BME280;6036;41.840;23.486;2022-09-28T08:08:40;89809.53;;;29.54;35.19
11952;BME280;6036;41.840;23.486;2022-09-28T08:11:12;89807.88;;;29.42;34.77
11952;BME280;6036;41.840;23.486;2022-09-28T08:13:37;89811.50;;;29.39;35.26
11952;BME280;6036;41.840;23.486;2022-09-28T08:16:03;89808.38;;;28.22;35.77
11952;BME280;6036;41.840;23.486;2022-09-28T08:18:29;89802.66;;;26.46;39.89
11952;BME280;6036;41.840;23.486;2022-09-28T08:20:54;89802.59;;;25.79;41.61
11952;BME280;6036;41.840;23.486;2022-09-28T08:23:38;89809.72;;;24.65;44.03
11952;BME280;6036;41.840;23.486;2022-09-28T08:26:03;89805.94;;;26.59;41.11
11952;BME280;6036;41.840;23.486;2022-09-28T08:28:29;89806.09;;;29.39;35.18
11952;BME280;6036;41.840;23.486;2022-09-28T08:30:54;89811.34;;;29.87;33.79
11952;BME280;6036;41.840;23.486;2022-09-28T08:33:22;89812.72;;;31.67;31.08
11952;BME280;6036;41.840;23.486;2022-09-28T08:35:53;89817.47;;;29.87;33.90
11952;BME280;6036;41.840;23.486;2022-09-28T08:38:20;89807.16;;;31.30;31.66
11952;BME280;6036;41.840;23.486;2022-09-28T08:43:18;89809.44;;;34.97;26.63
11952;BME280;6036;41.840;23.486;2022-09-28T08:45:47;89813.06;;;36.55;24.39
11952;BME280;6036;41.840;23.486;2022-09-28T08:48:15;89818.50;;;36.25;24.83
11952;BME280;6036;41.840;23.486;2022-09-28T08:51:06;89807.44;;;35.14;26.34
11952;BME280;6036;41.840;23.486;2022-09-28T08:53:36;89812.91;;;32.52;29.53
11952;BME280;6036;41.840;23.486;2022-09-28T08:56:05;89800.88;;;30.99;32.21
11952;BME280;6036;41.840;23.486;2022-09-28T08:58:35;89789.53;;;29.32;34.77
11952;BME280;6036;41.840;23.486;2022-09-28T09:01:02;89782.28;;;28.37;36.96
11952;BME280;6036;41.840;23.486;2022-09-28T09:03:35;89779.34;;;29.12;35.90
11952;BME280;6036;41.840;23.486;2022-09-28T09:23:56;89766.50;;;25.09;41.54
11952;BME280;6036;41.840;23.486;2022-09-28T09:26:37;89771.09;;;24.66;41.00
11952;BME280;6036;41.840;23.486;2022-09-28T09:44:43;89761.41;;;24.12;41.56
11952;BME280;6036;41.840;23.486;2022-09-28T09:47:33;89760.66;;;25.02;39.15
11952;BME280;6036;41.840;23.486;2022-09-28T09:50:02;89747.91;;;25.06;38.43
11952;BME280;6036;41.840;23.486;2022-09-28T09:52:33;89760.13;;;25.38;37.20
11952;BME280;6036;41.840;23.486;2022-09-28T10:00:10;89747.38;;;24.55;40.69
11952;BME280;6036;41.840;23.486;2022-09-28T10:02:37;89742.47;;;24.53;40.79
11952;BME280;6036;41.840;23.486;2022-09-28T10:07:38;89744.06;;;23.70;40.14
11952;BME280;6036;41.840;23.486;2022-09-28T10:10:09;89736.13;;;23.91;41.94
11952;BME280;6036;41.840;23.486;2022-09-28T10:12:36;89735.94;;;23.61;40.36
11952;BME280;6036;41.840;23.486;2022-09-28T10:15:01;89742.97;;;23.29;41.04
11952;BME280;6036;41.840;23.486;2022-09-28T10:17:30;89742.41;;;22.97;41.92
11952;BME280;6036;41.840;23.486;2022-09-28T10:19:55;89733.50;;;23.54;41.33
11952;BME280;6036;41.840;23.486;2022-09-28T10:22:22;89739.81;;;23.47;40.64
11952;BME280;6036;41.840;23.486;2022-09-28T10:24:48;89736.13;;;23.91;39.20
11952;BME280;6036;41.840;23.486;2022-09-28T10:27:19;89729.81;;;22.85;40.59
11952;BME280;6036;41.840;23.486;2022-09-28T10:29:59;89727.16;;;22.56;42.19
11952;BME280;6036;41.840;23.486;2022-09-28T10:32:26;89729.88;;;23.48;39.21
11952;BME280;6036;41.840;23.486;2022-09-28T10:34:52;89725.13;;;23.14;40.13
11952;BME280;6036;41.840;23.486;2022-09-28T10:37:34;89728.03;;;23.19;38.71
11952;BME280;6036;41.840;23.486;2022-09-28T10:43:01;89731.50;;;22.91;40.00
11952;BME280;6036;41.840;23.486;2022-09-28T10:45:26;89734.69;;;22.74;40.74
11952;BME280;6036;41.840;23.486;2022-09-28T10:47:55;89732.53;;;23.35;39.09
11952;BME280;6036;41.840;23.486;2022-09-28T10:50:23;89730.94;;;23.38;38.17
11952;BME280;6036;41.840;23.486;2022-09-28T10:52:49;89729.41;;;23.24;38.08
11952;BME280;6036;41.840;23.486;2022-09-28T10:57:46;89724.81;;;23.75;36.25
11952;BME280;6036;41.840;23.486;2022-09-28T11:02:56;89719.28;;;23.57;37.36
11952;BME280;6036;41.840;23.486;2022-09-28T11:05:22;89715.63;;;22.46;38.97
11952;BME280;6036;41.840;23.486;2022-09-28T11:07:48;89715.81;;;22.52;40.06
11952;BME280;6036;41.840;23.486;2022-09-28T11:10:20;89718.72;;;23.11;39.09
11952;BME280;6036;41.840;23.486;2022-09-28T11:12:46;89716.72;;;22.61;40.20
11952;BME280;6036;41.840;23.486;2022-09-28T11:15:23;89712.38;;;22.67;40.39
11952;BME280;6036;41.840;23.486;2022-09-28T11:17:48;89711.16;;;22.56;41.85
11952;BME280;6036;41.840;23.486;2022-09-28T11:22:45;89714.25;;;23.08;40.36
11952;BME280;6036;41.840;23.486;2022-09-28T11:27:40;89707.59;;;22.75;40.62
11952;BME280;6036;41.840;23.486;2022-09-28T11:30:16;89705.53;;;22.66;40.28
11952;BME280;6036;41.840;23.486;2022-09-28T11:32:44;89712.06;;;22.65;40.08
11952;BME280;6036;41.840;23.486;2022-09-28T11:35:15;89711.31;;;22.65;40.98
11952;BME280;6036;41.840;23.486;2022-09-28T11:42:42;89703.72;;;22.63;40.93
11952;BME280;6036;41.840;23.486;2022-09-28T11:47:40;89700.69;;;23.03;39.99
11952;BME280;6036;41.840;23.486;2022-09-28T11:50:15;89703.75;;;23.77;39.01
11952;BME280;6036;41.840;23.486;2022-09-28T11:52:46;89707.19;;;23.27;38.98
11952;BME280;6036;41.840;23.486;2022-09-28T11:55:18;89705.28;;;23.02;38.47
11952;BME280;6036;41.840;23.486;2022-09-28T11:57:47;89701.66;;;23.59;37.94
11952;BME280;6036;41.840;23.486;2022-09-28T12:00:15;89692.38;;;23.98;36.78
11952;BME280;6036;41.840;23.486;2022-09-28T12:05:21;89688.75;;;23.45;36.67
11952;BME280;6036;41.840;23.486;2022-09-28T12:07:53;89682.88;;;23.50;38.60
11952;BME280;6036;41.840;23.486;2022-09-28T12:10:30;89682.13;;;24.31;36.44
11952;BME280;6036;41.840;23.486;2022-09-28T12:12:59;89682.81;;;24.10;36.46
11952;BME280;6036;41.840;23.486;2022-09-28T12:15:27;89682.88;;;23.97;37.12
11952;BME280;6036;41.840;23.486;2022-09-28T12:17:59;89677.75;;;23.30;38.93
11952;BME280;6036;41.840;23.486;2022-09-28T12:20:31;89679.66;;;22.92;39.33
11952;BME280;6036;41.840;23.486;2022-09-28T12:23:02;89676.63;;;23.66;39.07
11952;BME280;6036;41.840;23.486;2022-09-28T12:25:28;89687.63;;;22.67;39.79
11952;BME280;6036;41.840;23.486;2022-09-28T12:28:02;89684.56;;;22.52;40.44
11952;BME280;6036;41.840;23.486;2022-09-28T12:30:31;89686.75;;;22.29;40.30
11952;BME280;6036;41.840;23.486;2022-09-28T12:33:03;89679.19;;;21.98;40.77
11952;BME280;6036;41.840;23.486;2022-09-28T12:38:31;89676.66;;;22.08;40.24
11952;BME280;6036;41.840;23.486;2022-09-28T12:56:32;89682.88;;;23.97;36.46
11952;BME280;6036;41.840;23.486;2022-09-28T12:59:12;89688.28;;;24.06;36.28
11952;BME280;6036;41.840;23.486;2022-09-28T13:06:59;89708.41;;;23.98;38.66
11952;BME280;6036;41.840;23.486;2022-09-28T13:09:28;89705.25;;;23.78;39.27
11952;BME280;6036;41.840;23.486;2022-09-28T13:14:36;89695.72;;;23.89;39.72
11952;BME280;6036;41.840;23.486;2022-09-28T13:19:43;89689.31;;;24.65;38.58
11952;BME280;6036;41.840;23.486;2022-09-28T13:22:29;89694.84;;;24.92;39.19
11952;BME280;6036;41.840;23.486;2022-09-28T13:24:58;89695.47;;;25.27;37.06
11952;BME280;6036;41.840;23.486;2022-09-28T13:27:36;89702.59;;;25.51;35.61
11952;BME280;6036;41.840;23.486;2022-09-28T13:30:03;89698.66;;;25.43;33.84
11952;BME280;6036;41.840;23.486;2022-09-28T13:32:30;89706.78;;;25.61;34.57
11952;BME280;6036;41.840;23.486;2022-09-28T13:34:57;89705.34;;;25.69;35.49
11952;BME280;6036;41.840;23.486;2022-09-28T13:37:23;89706.94;;;25.27;36.12
11952;BME280;6036;41.840;23.486;2022-09-28T13:45:04;89710.72;;;25.78;34.75
11952;BME280;6036;41.840;23.486;2022-09-28T13:55:27;89707.22;;;25.20;37.67
11952;BME280;6036;41.840;23.486;2022-09-28T13:58:00;89711.22;;;24.94;37.93
11952;BME280;6036;41.840;23.486;2022-09-28T14:00:43;89710.63;;;25.20;36.93
11952;BME280;6036;41.840;23.486;2022-09-28T14:04:08;89711.16;;;24.63;38.82
11952;BME280;6036;41.840;23.486;2022-09-28T14:08:30;89704.84;;;25.31;38.64
11952;BME280;6036;41.840;23.486;2022-09-28T14:18:41;89706.09;;;24.78;39.10
11952;BME280;6036;41.840;23.486;2022-09-28T14:21:18;89706.44;;;24.89;38.53
11952;BME280;6036;41.840;23.486;2022-09-28T14:24:07;89697.06;;;25.15;38.34
11952;BME280;6036;41.840;23.486;2022-09-28T14:36:58;89684.91;;;22.96;41.18
11952;BME280;6036;41.840;23.486;2022-09-28T14:39:43;89691.81;;;23.69;41.44
11952;BME280;6036;41.840;23.486;2022-09-28T14:42:27;89686.66;;;23.74;40.49
11952;BME280;6036;41.840;23.486;2022-09-28T14:47:32;89696.75;;;23.33;41.17
11952;BME280;6036;41.840;23.486;2022-09-28T14:49:59;89696.75;;;23.58;40.04
11952;BME280;6036;41.840;23.486;2022-09-28T14:53:08;89691.31;;;22.98;40.59
11952;BME280;6036;41.840;23.486;2022-09-28T14:55:14;89687.88;;;23.48;38.85
11952;BME280;6036;41.840;23.486;2022-09-28T14:57:40;89695.06;;;23.85;38.17
11952;BME280;6036;41.840;23.486;2022-09-28T15:00:17;89702.44;;;24.28;38.38
11952;BME280;6036;41.840;23.486;2022-09-28T15:02:46;89710.47;;;24.28;42.38
11952;BME280;6036;41.840;23.486;2022-09-28T15:05:13;89708.59;;;24.16;42.71
11952;BME280;6036;41.840;23.486;2022-09-28T15:07:50;89712.78;;;24.05;44.14
11952;BME280;6036;41.840;23.486;2022-09-28T15:12:47;89720.19;;;23.75;44.02
11952;BME280;6036;41.840;23.486;2022-09-28T15:15:34;89721.41;;;23.62;43.95
11952;BME280;6036;41.840;23.486;2022-09-28T15:20:58;89718.97;;;23.55;43.95
11952;BME280;6036;41.840;23.486;2022-09-28T15:23:32;89720.13;;;23.41;44.11
11952;BME280;6036;41.840;23.486;2022-09-28T15:25:58;89718.72;;;23.24;44.55
11952;BME280;6036;41.840;23.486;2022-09-28T15:28:23;89719.25;;;22.81;44.83
11952;BME280;6036;41.840;23.486;2022-09-28T15:30:49;89716.22;;;22.79;43.99
11952;BME280;6036;41.840;23.486;2022-09-28T15:33:24;89720.00;;;22.94;43.40
11952;BME280;6036;41.840;23.486;2022-09-28T15:36:09;89722.13;;;22.00;45.74
11952;BME280;6036;41.840;23.486;2022-09-28T15:38:37;89727.66;;;21.93;45.37
11952;BME280;6036;41.840;23.486;2022-09-28T15:41:04;89725.81;;;21.90;45.23
11952;BME280;6036;41.840;23.486;2022-09-28T15:43:31;89732.47;;;21.66;45.91
11952;BME280;6036;41.840;23.486;2022-09-28T15:46:13;89730.31;;;21.61;46.42
11952;BME280;6036;41.840;23.486;2022-09-28T15:51:08;89728.22;;;21.36;46.74
11952;BME280;6036;41.840;23.486;2022-09-28T15:53:46;89729.91;;;21.47;45.78
11952;BME280;6036;41.840;23.486;2022-09-28T15:56:14;89723.75;;;21.50;46.04
11952;BME280;6036;41.840;23.486;2022-09-28T15:58:39;89730.72;;;21.44;45.82
11952;BME280;6036;41.840;23.486;2022-09-28T16:09:31;89720.47;;;20.15;48.36
11952;BME280;6036;41.840;23.486;2022-09-28T16:11:58;89714.97;;;20.26;48.13
11952;BME280;6036;41.840;23.486;2022-09-28T16:14:33;89715.66;;;20.30;47.31